Time;durP1;ratioP1;P1;durP2;ratioP2;P2;SDS_P1;SDS_P2;PMS_P1;PMS_P2;Temp;Humidity;BMP_temperature;BMP_pressure;BME280_temperature;BME280_humidity;BME280_pressure;Samples;Min_cycle;Max_cycle;Signal;HPM_P1;HPM_P2
2020/12/10 00:01:15;;;;;;;34.33;21.77;;;3.00;99.90;;;;;;4915424;29;20483;-23
2020/12/10 00:03:43;;;;;;;35.67;23.07;;;3.00;99.90;;;;;;4915406;29;20444;-23
2020/12/10 00:06:10;;;;;;;38.13;23.27;;;3.10;99.90;;;;;;4895829;29;20472;-23
2020/12/10 00:08:38;;;;;;;35.80;21.77;;;3.20;99.90;;;;;;4896099;29;20456;-23
2020/12/10 00:11:05;;;;;;;37.67;22.37;;;3.20;99.90;;;;;;4913471;29;20515;-25
2020/12/10 00:13:32;;;;;;;42.40;23.47;;;3.20;99.90;;;;;;4915590;29;20839;-25
2020/12/10 00:16:00;;;;;;;38.37;25.97;;;3.20;99.90;;;;;;4915312;29;20957;-25
2020/12/10 00:18:28;;;;;;;33.30;22.80;;;3.20;99.90;;;;;;4915187;29;20587;-25
2020/12/10 00:20:56;;;;;;;37.70;22.87;;;3.20;99.90;;;;;;4915573;29;20452;-23
2020/12/10 00:23:23;;;;;;;36.50;22.50;;;3.30;99.90;;;;;;4928448;29;20464;-25
2020/12/10 00:25:50;;;;;;;33.27;21.93;;;3.20;99.90;;;;;;4915513;29;20891;-25
2020/12/10 00:28:19;;;;;;;36.93;23.07;;;3.20;99.90;;;;;;4914734;29;20451;-25
2020/12/10 00:30:46;;;;;;;34.33;22.20;;;3.20;99.90;;;;;;4915811;29;20515;-25
2020/12/10 00:33:15;;;;;;;36.77;21.90;;;3.20;99.90;;;;;;4915402;29;20448;-25
2020/12/10 00:35:44;;;;;;;32.30;20.90;;;3.20;99.90;;;;;;4945102;28;20560;-26
2020/12/10 00:38:11;;;;;;;35.77;20.70;;;3.20;99.90;;;;;;4952889;29;20481;-25
2020/12/10 00:40:39;;;;;;;29.00;20.83;;;3.20;99.90;;;;;;4953157;28;20545;-25
2020/12/10 00:43:11;;;;;;;35.17;22.17;;;3.30;99.90;;;;;;4952663;28;20928;-23
2020/12/10 00:45:38;;;;;;;36.00;21.27;;;3.30;99.90;;;;;;4969110;28;21113;-25
2020/12/10 00:48:06;;;;;;;32.97;21.63;;;3.30;99.90;;;;;;4972640;28;20561;-25
2020/12/10 00:50:34;;;;;;;33.53;22.50;;;3.20;99.90;;;;;;4987035;28;20461;-25
2020/12/10 00:53:01;;;;;;;30.27;19.60;;;3.20;99.90;;;;;;4985914;28;20452;-25
2020/12/10 00:55:29;;;;;;;32.40;20.87;;;3.20;99.90;;;;;;4967922;28;20448;-25
2020/12/10 00:57:57;;;;;;;35.70;21.07;;;3.30;99.90;;;;;;4971488;28;20483;-25
2020/12/10 01:00:24;;;;;;;41.27;22.93;;;3.30;99.90;;;;;;4972496;28;20481;-25
2020/12/10 01:02:54;;;;;;;32.13;21.30;;;3.40;99.90;;;;;;4971262;28;20456;-25
2020/12/10 01:05:22;;;;;;;30.90;20.50;;;3.40;99.90;;;;;;4971222;28;20659;-25
2020/12/10 01:07:58;;;;;;;28.17;20.37;;;3.50;99.90;;;;;;4971176;28;20421;-25
2020/12/10 01:10:26;;;;;;;35.13;23.03;;;3.60;99.90;;;;;;4972492;28;20468;-25
2020/12/10 01:12:53;;;;;;;27.37;18.93;;;3.60;99.90;;;;;;4972467;28;20461;-25
2020/12/10 01:15:20;;;;;;;34.00;20.90;;;3.70;99.90;;;;;;4964464;28;20446;-25
2020/12/10 01:17:55;;;;;;;30.60;19.57;;;3.70;99.90;;;;;;4952086;28;20990;-25
2020/12/10 01:20:24;;;;;;;29.20;19.50;;;3.70;99.90;;;;;;4957508;28;20438;-25
2020/12/10 01:22:51;;;;;;;31.80;22.20;;;3.70;99.90;;;;;;4952728;29;20889;-25
2020/12/10 01:25:24;;;;;;;27.90;20.80;;;3.70;99.90;;;;;;4961864;28;20495;-25
2020/12/10 01:27:50;;;;;;;32.93;21.13;;;3.70;99.90;;;;;;4973260;28;20464;-25
2020/12/10 01:30:17;;;;;;;30.87;19.47;;;3.70;99.90;;;;;;4973386;28;20441;-25
2020/12/10 01:32:44;;;;;;;34.77;23.57;;;3.70;99.90;;;;;;4971894;28;20870;-25
2020/12/10 01:35:11;;;;;;;31.00;20.60;;;3.60;99.90;;;;;;4973718;28;20477;-25
2020/12/10 01:37:39;;;;;;;27.17;18.70;;;3.60;99.90;;;;;;4958839;28;20493;-25
2020/12/10 01:40:11;;;;;;;30.47;18.87;;;3.60;99.90;;;;;;4954777;28;20500;-25
2020/12/10 01:42:44;;;;;;;27.83;18.50;;;3.50;99.90;;;;;;4970616;28;20970;-25
2020/12/10 01:45:11;;;;;;;31.60;19.60;;;3.40;99.90;;;;;;4954621;28;20450;-25
2020/12/10 01:47:51;;;;;;;28.80;19.10;;;3.50;99.90;;;;;;4956200;29;20505;-25
2020/12/10 01:50:27;;;;;;;31.87;20.10;;;3.50;99.90;;;;;;4958272;29;20490;-25
2020/12/10 01:52:57;;;;;;;31.17;19.03;;;3.50;99.90;;;;;;4955650;28;20470;-25
2020/12/10 01:55:26;;;;;;;30.97;19.87;;;3.50;99.90;;;;;;4959479;28;20449;-25
2020/12/10 01:57:55;;;;;;;29.53;20.07;;;3.40;99.90;;;;;;4974384;28;20496;-25
2020/12/10 02:00:22;;;;;;;30.53;19.93;;;3.40;99.90;;;;;;4974032;28;20441;-25
2020/12/10 02:02:55;;;;;;;31.17;20.30;;;3.30;99.90;;;;;;4971518;28;20466;-25
2020/12/10 02:05:23;;;;;;;32.37;21.53;;;3.30;99.90;;;;;;4955727;28;20446;-25
2020/12/10 02:07:49;;;;;;;32.13;21.07;;;3.40;99.90;;;;;;4955993;28;20486;-25
2020/12/10 02:10:26;;;;;;;33.57;19.70;;;3.40;99.90;;;;;;4969371;28;20477;-25
2020/12/10 02:12:55;;;;;;;30.90;19.27;;;3.50;99.90;;;;;;4956067;28;20470;-25
2020/12/10 02:15:23;;;;;;;32.70;20.50;;;3.60;99.90;;;;;;4955586;29;20778;-25
2020/12/10 02:18:13;;;;;;;30.90;19.97;;;3.60;99.90;;;;;;4982935;28;20542;-25
2020/12/10 02:20:42;;;;;;;32.40;20.77;;;3.70;99.90;;;;;;4993772;28;20503;-26
2020/12/10 02:23:11;;;;;;;32.67;20.70;;;3.60;99.90;;;;;;4993893;28;20547;-25
2020/12/10 02:25:39;;;;;;;34.63;21.23;;;3.60;99.90;;;;;;4973353;28;20871;-25
2020/12/10 02:28:11;;;;;;;25.67;17.37;;;3.50;99.90;;;;;;4974705;28;20465;-25
2020/12/10 02:30:40;;;;;;;34.40;20.60;;;3.40;99.90;;;;;;4993484;28;20451;-25
2020/12/10 02:33:10;;;;;;;36.10;21.33;;;3.30;99.90;;;;;;4992862;28;20463;-25
2020/12/10 02:35:40;;;;;;;33.03;19.37;;;3.20;99.90;;;;;;4973853;28;20532;-25
2020/12/10 02:38:10;;;;;;;32.73;20.50;;;3.20;99.90;;;;;;4974564;28;20465;-25
2020/12/10 02:40:40;;;;;;;34.73;19.73;;;3.30;99.90;;;;;;4974983;28;20926;-25
2020/12/10 02:43:10;;;;;;;31.57;20.33;;;3.20;99.90;;;;;;4992553;28;20432;-24
2020/12/10 02:45:38;;;;;;;33.50;21.07;;;3.10;99.90;;;;;;4973183;28;20442;-24
2020/12/10 02:48:08;;;;;;;26.47;19.23;;;3.20;99.90;;;;;;4975156;28;20500;-25
2020/12/10 02:50:36;;;;;;;28.20;18.73;;;3.20;99.90;;;;;;4973646;28;20748;-25
2020/12/10 02:53:07;;;;;;;36.17;21.10;;;3.30;99.90;;;;;;4956537;28;20698;-24
2020/12/10 02:55:35;;;;;;;39.03;20.33;;;3.40;99.90;;;;;;4993880;28;20448;-24
2020/12/10 02:58:03;;;;;;;29.40;18.73;;;3.40;99.90;;;;;;4983582;28;20475;-24
2020/12/10 03:00:30;;;;;;;35.67;21.53;;;3.40;99.90;;;;;;4992858;28;20478;-24
2020/12/10 03:02:57;;;;;;;36.23;20.50;;;3.40;99.90;;;;;;4992882;28;20827;-24
2020/12/10 03:05:24;;;;;;;36.40;21.73;;;3.50;99.90;;;;;;4993080;28;20436;-24
2020/12/10 03:07:51;;;;;;;34.20;20.20;;;3.50;99.90;;;;;;4978027;28;20460;-24
2020/12/10 03:10:18;;;;;;;32.80;19.93;;;3.60;99.90;;;;;;4972859;28;20519;-24
2020/12/10 03:12:47;;;;;;;36.63;20.70;;;3.60;99.90;;;;;;4955273;28;20501;-24
2020/12/10 03:15:14;;;;;;;30.03;18.50;;;3.70;99.90;;;;;;4954289;28;20453;-25
2020/12/10 03:17:46;;;;;;;32.40;18.83;;;3.70;99.90;;;;;;4954855;28;20906;-24
2020/12/10 03:20:13;;;;;;;30.97;19.20;;;3.70;99.90;;;;;;4952647;29;20452;-24
2020/12/10 03:22:43;;;;;;;30.70;20.03;;;3.80;99.90;;;;;;4955543;28;20478;-24
2020/12/10 03:25:10;;;;;;;33.80;21.37;;;3.80;99.90;;;;;;4969533;28;20698;-24
2020/12/10 03:27:37;;;;;;;31.43;20.13;;;3.80;99.90;;;;;;4954394;29;20549;-24
2020/12/10 03:30:05;;;;;;;28.93;18.90;;;3.80;99.90;;;;;;4953876;28;20461;-24
2020/12/10 03:32:33;;;;;;;27.93;18.83;;;3.80;99.90;;;;;;4951438;29;20545;-24
2020/12/10 03:35:01;;;;;;;28.87;20.57;;;3.80;99.90;;;;;;4954209;29;20449;-24
2020/12/10 03:37:29;;;;;;;28.30;17.77;;;3.80;99.90;;;;;;4953147;28;20465;-24
2020/12/10 03:39:56;;;;;;;38.17;20.20;;;3.80;99.90;;;;;;4953458;29;20500;-25
2020/12/10 03:42:24;;;;;;;31.00;19.20;;;3.80;99.90;;;;;;5025671;23;20498;-24
2020/12/10 03:44:51;;;;;;;32.13;19.57;;;3.80;99.90;;;;;;4953619;29;20446;-24
2020/12/10 03:47:20;;;;;;;29.53;19.20;;;3.80;99.90;;;;;;4953394;29;20446;-24
2020/12/10 03:49:47;;;;;;;28.77;18.13;;;3.80;99.90;;;;;;4953424;29;20508;-24
2020/12/10 03:52:14;;;;;;;28.47;18.50;;;3.90;99.90;;;;;;4956613;28;20468;-23
2020/12/10 03:54:41;;;;;;;30.83;19.67;;;3.90;99.90;;;;;;4954629;28;20478;-24
2020/12/10 03:57:09;;;;;;;29.80;16.20;;;3.90;99.90;;;;;;4972097;28;20563;-24
2020/12/10 03:59:37;;;;;;;27.47;18.43;;;3.90;99.90;;;;;;4971567;28;20500;-24
2020/12/10 04:02:05;;;;;;;30.20;18.77;;;3.90;99.90;;;;;;4970574;28;20437;-24
2020/12/10 04:04:32;;;;;;;28.93;18.97;;;3.90;99.90;;;;;;4950834;29;20950;-24
2020/12/10 04:06:59;;;;;;;25.20;18.10;;;3.90;99.90;;;;;;4951912;28;20544;-24
2020/12/10 04:09:26;;;;;;;26.63;17.50;;;3.90;99.90;;;;;;4971705;28;20477;-24
2020/12/10 04:11:54;;;;;;;29.70;18.17;;;3.90;99.90;;;;;;4973567;28;20441;-24
2020/12/10 04:14:21;;;;;;;24.80;16.53;;;3.90;99.90;;;;;;4974016;28;20846;-24
2020/12/10 04:16:49;;;;;;;32.80;19.77;;;3.90;99.90;;;;;;4973775;28;21130;-24
2020/12/10 04:19:16;;;;;;;33.37;18.03;;;3.90;99.90;;;;;;4973103;28;20476;-24
2020/12/10 04:21:47;;;;;;;26.83;17.80;;;3.90;99.90;;;;;;4971639;28;20433;-24
2020/12/10 04:24:17;;;;;;;30.10;19.77;;;3.80;99.90;;;;;;4971645;28;20453;-24
2020/12/10 04:26:44;;;;;;;28.93;18.30;;;3.90;99.90;;;;;;4971245;28;20440;-24
2020/12/10 04:29:13;;;;;;;28.90;18.97;;;3.90;99.90;;;;;;4970499;28;20520;-24
2020/12/10 04:34:09;;;;;;;33.30;20.33;;;4.00;99.90;;;;;;4968745;28;20473;-24
2020/12/10 04:36:36;;;;;;;27.50;18.37;;;3.90;99.90;;;;;;4972354;28;20445;-24
2020/12/10 04:39:05;;;;;;;24.60;16.90;;;3.90;99.90;;;;;;4970860;28;20477;-24
2020/12/10 04:41:35;;;;;;;27.27;17.87;;;3.90;99.90;;;;;;4970518;28;20445;-24
2020/12/10 04:44:03;;;;;;;29.20;21.27;;;4.00;99.90;;;;;;4969484;28;20456;-24
2020/12/10 04:46:32;;;;;;;30.53;18.40;;;3.90;99.90;;;;;;4970460;28;20445;-24
2020/12/10 04:49:01;;;;;;;27.23;19.00;;;3.90;99.90;;;;;;4970003;28;20457;-24
2020/12/10 04:51:29;;;;;;;28.40;18.70;;;3.90;99.90;;;;;;4970241;28;20453;-24
2020/12/10 04:53:55;;;;;;;30.17;19.30;;;4.00;99.90;;;;;;4969741;28;20527;-24
2020/12/10 04:56:24;;;;;;;30.53;18.50;;;4.00;99.90;;;;;;4971082;28;20839;-24
2020/12/10 04:58:52;;;;;;;27.50;17.70;;;4.00;99.90;;;;;;4969160;28;20507;-24
2020/12/10 05:01:20;;;;;;;30.20;19.17;;;4.00;99.90;;;;;;4967602;28;20441;-24
2020/12/10 05:03:47;;;;;;;30.67;20.77;;;4.00;99.90;;;;;;4969520;28;20535;-24
2020/12/10 05:06:16;;;;;;;30.50;21.00;;;4.00;99.90;;;;;;4968265;28;20441;-24
2020/12/10 05:08:45;;;;;;;29.90;18.07;;;4.00;99.90;;;;;;4968070;28;20440;-24
2020/12/10 05:11:13;;;;;;;32.03;18.87;;;4.00;99.90;;;;;;4973374;28;20544;-24
2020/12/10 05:13:54;;;;;;;23.10;17.27;;;4.00;99.90;;;;;;4972506;28;20476;-24
2020/12/10 05:16:22;;;;;;;30.60;19.13;;;4.00;99.90;;;;;;4971784;28;20472;-24
2020/12/10 05:18:49;;;;;;;32.03;20.73;;;4.00;99.90;;;;;;4973032;28;20473;-24
2020/12/10 05:21:18;;;;;;;30.60;20.50;;;4.00;99.90;;;;;;4972068;28;20496;-24
2020/12/10 05:23:45;;;;;;;27.70;18.77;;;4.00;99.90;;;;;;4970049;28;20500;-24
2020/12/10 05:26:13;;;;;;;32.10;19.80;;;4.00;99.90;;;;;;4973044;28;20445;-24
2020/12/10 05:28:45;;;;;;;27.63;19.07;;;4.00;99.90;;;;;;4974124;28;20455;-24
2020/12/10 05:31:14;;;;;;;36.23;25.33;;;4.00;99.90;;;;;;4967140;28;20499;-24
2020/12/10 05:33:55;;;;;;;32.70;20.80;;;4.00;99.90;;;;;;4973678;28;20449;-24
2020/12/10 05:36:24;;;;;;;33.17;20.40;;;4.00;99.90;;;;;;4972924;28;20445;-24
2020/12/10 05:39:02;;;;;;;33.97;22.87;;;3.90;99.90;;;;;;4970454;28;20487;-24
2020/12/10 05:41:32;;;;;;;29.63;20.47;;;3.80;99.90;;;;;;4969674;28;20440;-24
2020/12/10 05:44:15;;;;;;;33.00;20.63;;;3.80;99.90;;;;;;4971023;28;20465;-24
2020/12/10 05:46:43;;;;;;;28.63;20.33;;;3.80;99.90;;;;;;4969036;28;20441;-24
2020/12/10 05:49:11;;;;;;;29.57;19.20;;;3.80;99.90;;;;;;4968546;28;20544;-24
2020/12/10 05:51:43;;;;;;;23.87;17.17;;;3.80;99.90;;;;;;4968615;28;20433;-24
2020/12/10 05:54:11;;;;;;;36.93;20.27;;;3.80;99.90;;;;;;4967193;28;20460;-24
2020/12/10 05:56:51;;;;;;;26.83;17.73;;;3.70;99.90;;;;;;4968970;28;20453;-24
2020/12/10 05:59:19;;;;;;;38.87;20.33;;;3.60;99.90;;;;;;4968494;28;20477;-24
2020/12/10 06:01:47;;;;;;;31.70;18.50;;;3.50;99.90;;;;;;4968165;28;20449;-24
2020/12/10 06:04:16;;;;;;;32.63;21.37;;;3.50;99.90;;;;;;4967726;28;20453;-24
2020/12/10 06:06:52;;;;;;;33.83;19.77;;;3.40;99.90;;;;;;4968629;28;20449;-24
2020/12/10 06:09:19;;;;;;;57.37;36.10;;;3.40;99.90;;;;;;4967136;28;20464;-24
2020/12/10 06:11:49;;;;;;;57.97;36.33;;;3.40;99.90;;;;;;4966254;28;20528;-24
2020/12/10 06:14:18;;;;;;;51.70;34.97;;;3.40;99.90;;;;;;4965732;28;20499;-24
2020/12/10 06:16:45;;;;;;;34.87;20.90;;;3.50;99.90;;;;;;4961668;28;20496;-24
2020/12/10 06:19:13;;;;;;;36.57;20.23;;;3.60;99.90;;;;;;4962329;28;20485;-24
2020/12/10 06:21:43;;;;;;;38.60;21.80;;;3.60;99.90;;;;;;4956904;28;21107;-24
2020/12/10 06:24:33;;;;;;;40.70;22.93;;;3.50;99.90;;;;;;4961806;28;20453;-24
2020/12/10 06:27:21;;;;;;;33.10;20.57;;;3.60;99.90;;;;;;4955703;28;21182;-24
2020/12/10 06:29:49;;;;;;;38.00;21.07;;;3.60;99.90;;;;;;4957732;28;20472;-24
2020/12/10 06:32:18;;;;;;;36.53;23.07;;;3.70;99.90;;;;;;4941682;28;20516;-24
2020/12/10 06:34:47;;;;;;;43.13;23.80;;;3.70;99.90;;;;;;4956906;28;20465;-24
2020/12/10 06:37:28;;;;;;;38.17;23.20;;;3.80;99.90;;;;;;4956336;28;20448;-24
2020/12/10 06:40:00;;;;;;;34.30;21.40;;;3.80;99.90;;;;;;4953975;28;20487;-24
2020/12/10 06:42:43;;;;;;;35.80;21.10;;;3.80;99.90;;;;;;4952204;28;20644;-24
2020/12/10 06:45:34;;;;;;;36.00;21.60;;;3.80;99.90;;;;;;4954186;28;20452;-24
2020/12/10 06:48:02;;;;;;;36.20;22.30;;;3.90;99.90;;;;;;4951542;28;20452;-24
2020/12/10 06:50:34;;;;;;;30.13;20.53;;;3.90;99.90;;;;;;4953150;28;20472;-24
2020/12/10 06:53:23;;;;;;;31.90;19.90;;;3.90;99.90;;;;;;4950802;28;20834;-24
2020/12/10 06:56:15;;;;;;;35.93;22.90;;;3.90;99.90;;;;;;4952357;28;21101;-24
2020/12/10 06:58:48;;;;;;;35.00;21.93;;;3.90;99.90;;;;;;4951945;28;20835;-24
2020/12/10 07:02:09;;;;;;;35.53;22.17;;;3.90;99.90;;;;;;4945709;28;20449;-24
2020/12/10 07:04:46;;;;;;;35.37;20.37;;;3.80;99.90;;;;;;4948988;28;20599;-24
2020/12/10 07:07:16;;;;;;;34.73;20.90;;;3.90;99.90;;;;;;4943621;28;20493;-24
2020/12/10 07:09:48;;;;;;;33.40;21.83;;;3.80;99.90;;;;;;4948479;28;20434;-24
2020/12/10 07:12:23;;;;;;;31.40;20.83;;;3.90;99.90;;;;;;4946801;28;20901;-24
2020/12/10 07:15:11;;;;;;;36.00;22.27;;;3.90;99.90;;;;;;4948002;28;20847;-24
2020/12/10 07:17:40;;;;;;;37.40;22.37;;;3.90;99.90;;;;;;4947467;28;20465;-24
2020/12/10 07:20:07;;;;;;;31.93;19.87;;;4.00;99.90;;;;;;4944551;28;20492;-24
2020/12/10 07:22:33;;;;;;;32.90;20.83;;;4.00;99.90;;;;;;4947093;28;20488;-24
2020/12/10 07:25:01;;;;;;;35.30;20.93;;;4.00;99.90;;;;;;4944212;28;21419;-24
2020/12/10 07:27:29;;;;;;;37.33;21.53;;;4.00;99.90;;;;;;4943866;28;20438;-24
2020/12/10 07:29:58;;;;;;;32.13;19.47;;;4.00;99.90;;;;;;4948302;28;20457;-24
2020/12/10 07:32:26;;;;;;;31.37;20.50;;;4.00;99.90;;;;;;4946919;28;20507;-24
2020/12/10 07:34:54;;;;;;;32.33;22.03;;;4.00;99.90;;;;;;4946550;28;20453;-25
2020/12/10 07:37:29;;;;;;;35.60;21.43;;;3.90;99.90;;;;;;4944238;28;20988;-24
2020/12/10 07:39:58;;;;;;;36.63;22.10;;;3.90;99.90;;;;;;4943503;28;20750;-24
2020/12/10 07:42:25;;;;;;;37.40;22.60;;;3.90;99.90;;;;;;4943146;28;20452;-24
2020/12/10 07:44:52;;;;;;;35.97;22.60;;;4.00;99.90;;;;;;4941590;28;20560;-24
2020/12/10 07:47:19;;;;;;;36.93;23.00;;;4.00;99.90;;;;;;4939863;28;20465;-24
2020/12/10 07:49:47;;;;;;;40.97;25.47;;;4.00;99.90;;;;;;4942359;28;20557;-24
2020/12/10 07:52:15;;;;;;;38.30;24.60;;;4.00;99.90;;;;;;4946811;28;21077;-24
2020/12/10 07:54:47;;;;;;;38.70;25.60;;;4.00;99.90;;;;;;4933867;28;20485;-24
2020/12/10 07:57:30;;;;;;;35.20;23.33;;;4.00;99.90;;;;;;4930993;28;20493;-23
2020/12/10 08:00:04;;;;;;;38.17;25.43;;;4.10;99.90;;;;;;4952669;28;20483;-23
2020/12/10 08:02:58;;;;;;;33.83;22.20;;;4.10;99.90;;;;;;4947688;28;20547;-23
2020/12/10 08:05:26;;;;;;;36.13;24.27;;;4.20;99.90;;;;;;4944123;28;20453;-24
2020/12/10 08:07:59;;;;;;;39.20;23.70;;;4.30;99.90;;;;;;4944388;28;20968;-24
2020/12/10 08:10:30;;;;;;;31.83;21.70;;;4.30;99.90;;;;;;4948151;28;20476;-25
2020/12/10 08:13:28;;;;;;;34.50;21.93;;;4.30;99.90;;;;;;4943876;28;20457;-24
2020/12/10 08:18:52;;;;;;;35.17;22.60;;;4.20;99.90;;;;;;4941690;28;20964;-25
2020/12/10 08:21:32;;;;;;;39.40;21.60;;;4.30;99.90;;;;;;4941051;28;20442;-24
2020/12/10 08:24:02;;;;;;;34.40;20.93;;;4.30;99.90;;;;;;4942007;28;20452;-24
2020/12/10 08:26:30;;;;;;;35.00;21.10;;;4.30;99.90;;;;;;4945634;28;20575;-24
2020/12/10 08:28:58;;;;;;;38.17;23.13;;;4.30;99.90;;;;;;4943572;28;20482;-25
2020/12/10 08:31:30;;;;;;;34.07;23.30;;;4.40;99.90;;;;;;4937539;28;20586;-25
2020/12/10 08:33:58;;;;;;;37.53;22.87;;;4.50;99.90;;;;;;4936611;28;20449;-24
2020/12/10 08:36:35;;;;;;;41.27;24.17;;;4.60;99.90;;;;;;4934498;28;20445;-25
2020/12/10 08:39:20;;;;;;;35.03;22.57;;;4.70;99.90;;;;;;4938427;28;20564;-25
2020/12/10 08:42:12;;;;;;;40.27;22.87;;;4.80;99.90;;;;;;4943535;28;20457;-25
2020/12/10 08:44:48;;;;;;;38.47;22.77;;;4.80;99.90;;;;;;4946224;28;20452;-25
2020/12/10 08:47:30;;;;;;;36.87;21.03;;;4.80;99.90;;;;;;4934830;28;20559;-25
2020/12/10 08:50:27;;;;;;;39.90;22.93;;;4.80;99.90;;;;;;4944350;28;20444;-25
2020/12/10 08:53:12;;;;;;;49.03;23.43;;;4.90;99.90;;;;;;4955330;28;20900;-24
2020/12/10 08:55:46;;;;;;;38.33;23.73;;;5.00;99.90;;;;;;4946021;28;20982;-24
2020/12/10 08:58:20;;;;;;;38.40;23.67;;;5.10;99.90;;;;;;4941613;28;20487;-24
2020/12/10 09:00:55;;;;;;;39.47;25.93;;;5.10;99.90;;;;;;4953407;28;20445;-24
2020/12/10 09:03:26;;;;;;;43.13;25.50;;;5.20;99.90;;;;;;4942076;28;20453;-24
2020/12/10 09:06:00;;;;;;;35.60;22.33;;;5.20;99.90;;;;;;4939613;28;20461;-25
2020/12/10 09:08:32;;;;;;;37.87;24.00;;;5.20;99.90;;;;;;4939976;28;20559;-25
2020/12/10 09:11:09;;;;;;;40.20;23.57;;;5.30;99.90;;;;;;4950160;28;20857;-25
2020/12/10 09:16:22;;;;;;;40.33;24.90;;;5.30;99.90;;;;;;4942680;28;20542;-25
2020/12/10 09:19:01;;;;;;;39.93;23.30;;;5.40;99.90;;;;;;4948390;28;21351;-25
2020/12/10 09:21:37;;;;;;;43.00;25.50;;;5.40;99.90;;;;;;4946545;28;20457;-25
2020/12/10 09:24:20;;;;;;;36.00;22.90;;;5.50;99.90;;;;;;4931047;28;20455;-25
2020/12/10 09:26:52;;;;;;;38.10;22.27;;;5.40;99.90;;;;;;4952242;28;21009;-24
2020/12/10 09:29:30;;;;;;;40.57;22.50;;;5.40;99.90;;;;;;4934473;28;20464;-25
2020/12/10 09:32:05;;;;;;;39.57;24.63;;;5.40;99.90;;;;;;4949696;28;20764;-25
2020/12/10 09:34:43;;;;;;;44.33;28.33;;;5.60;99.90;;;;;;4953135;28;20519;-24
2020/12/10 09:37:14;;;;;;;35.97;22.77;;;5.60;99.90;;;;;;4940557;28;21053;-25
2020/12/10 09:39:52;;;;;;;41.80;22.10;;;5.70;99.90;;;;;;4942625;28;20517;-25
2020/12/10 09:42:27;;;;;;;30.73;19.37;;;5.70;99.90;;;;;;4931171;28;20949;-24
2020/12/10 09:45:02;;;;;;;30.63;20.33;;;5.80;99.90;;;;;;4933954;28;20452;-24
2020/12/10 09:47:30;;;;;;;36.20;21.70;;;5.80;99.90;;;;;;4933082;28;20508;-25
2020/12/10 09:50:18;;;;;;;40.50;23.13;;;5.80;99.90;;;;;;4930545;28;20457;-25
2020/12/10 09:56:10;;;;;;;34.37;20.90;;;5.80;99.90;;;;;;4931143;28;20465;-24
2020/12/10 09:58:46;;;;;;;40.67;21.40;;;5.70;99.90;;;;;;4928022;28;20477;-24
2020/12/10 10:01:16;;;;;;;32.80;19.57;;;5.70;99.90;;;;;;4925761;28;20584;-24
2020/12/10 10:03:49;;;;;;;33.70;21.17;;;5.70;99.90;;;;;;4925191;28;20461;-24
2020/12/10 10:06:20;;;;;;;32.63;20.97;;;5.80;99.90;;;;;;4937118;28;20487;-24
2020/12/10 10:08:51;;;;;;;33.30;20.50;;;5.80;99.90;;;;;;4937429;28;20718;-24
2020/12/10 10:11:24;;;;;;;34.53;20.97;;;5.80;99.90;;;;;;4938091;28;20449;-24
2020/12/10 10:13:56;;;;;;;33.83;20.47;;;5.90;99.90;;;;;;4938706;28;20467;-24
2020/12/10 10:16:32;;;;;;;35.80;20.50;;;6.00;99.90;;;;;;4932018;28;20632;-24
2020/12/10 10:19:05;;;;;;;38.67;22.60;;;6.00;99.90;;;;;;4931669;28;21292;-24
2020/12/10 10:21:39;;;;;;;34.57;20.80;;;6.00;99.90;;;;;;4935970;28;20917;-24
2020/12/10 10:24:32;;;;;;;32.13;20.20;;;6.10;99.90;;;;;;4931341;28;20445;-24
2020/12/10 10:27:15;;;;;;;34.67;19.60;;;6.10;99.90;;;;;;4931369;28;20448;-23
2020/12/10 10:29:47;;;;;;;35.10;20.50;;;6.00;99.90;;;;;;4932452;28;20529;-23
2020/12/10 10:32:18;;;;;;;35.33;20.93;;;6.00;99.90;;;;;;4939972;28;20495;-24
2020/12/10 10:34:50;;;;;;;32.90;19.23;;;6.00;99.90;;;;;;4931819;28;20942;-26
2020/12/10 10:37:22;;;;;;;39.30;22.30;;;6.10;99.90;;;;;;4941853;28;20476;-24
2020/12/10 10:39:52;;;;;;;39.77;21.20;;;6.20;99.90;;;;;;4940850;28;20461;-26
2020/12/10 10:42:23;;;;;;;32.37;21.80;;;6.10;99.90;;;;;;4937600;28;20466;-24
2020/12/10 10:45:11;;;;;;;40.47;22.00;;;6.20;99.90;;;;;;4939129;28;20487;-24
2020/12/10 10:47:46;;;;;;;35.97;20.47;;;6.20;99.90;;;;;;4937288;28;20453;-25
2020/12/10 10:50:18;;;;;;;37.73;20.40;;;6.30;99.90;;;;;;4936846;28;20481;-25
2020/12/10 10:52:47;;;;;;;32.63;20.10;;;6.20;99.90;;;;;;4941067;28;20535;-25
2020/12/10 10:55:26;;;;;;;33.30;19.43;;;6.20;99.90;;;;;;4935516;28;21519;-25
2020/12/10 10:58:03;;;;;;;37.80;21.73;;;6.20;99.90;;;;;;4939417;28;20468;-25
2020/12/10 11:00:32;;;;;;;35.07;20.33;;;6.20;99.90;;;;;;4938482;28;20473;-25
2020/12/10 11:03:01;;;;;;;33.57;18.50;;;6.30;99.90;;;;;;4932079;28;20448;-25
2020/12/10 11:05:29;;;;;;;36.63;21.80;;;6.30;99.90;;;;;;4936303;28;20477;-25
2020/12/10 11:07:58;;;;;;;36.03;21.70;;;6.50;99.90;;;;;;4941779;28;20616;-25
2020/12/10 11:10:28;;;;;;;34.30;19.70;;;6.60;99.90;;;;;;4941020;28;20824;-26
2020/12/10 11:12:55;;;;;;;36.50;21.30;;;6.60;99.90;;;;;;4942478;28;20465;-25
2020/12/10 11:15:31;;;;;;;30.37;20.80;;;6.70;99.90;;;;;;4941075;28;20449;-25
2020/12/10 11:18:06;;;;;;;32.57;20.47;;;6.70;99.90;;;;;;4940468;28;20468;-25
2020/12/10 11:20:34;;;;;;;36.63;20.47;;;6.70;99.90;;;;;;4943302;28;20527;-25
2020/12/10 11:23:03;;;;;;;34.07;21.90;;;6.70;99.90;;;;;;4934794;28;20668;-25
2020/12/10 11:25:32;;;;;;;31.17;20.50;;;6.80;99.90;;;;;;4942610;28;21340;-25
2020/12/10 11:28:02;;;;;;;32.87;19.53;;;6.80;99.90;;;;;;4941756;28;20441;-25
2020/12/10 11:30:30;;;;;;;34.07;21.20;;;6.90;99.90;;;;;;4943925;28;20463;-25
2020/12/10 11:32:56;;;;;;;38.63;24.10;;;6.90;99.90;;;;;;4942756;28;20786;-25
2020/12/10 11:35:25;;;;;;;36.70;22.70;;;7.00;99.90;;;;;;4936720;28;20457;-25
2020/12/10 11:37:55;;;;;;;37.57;22.53;;;7.00;99.90;;;;;;4940986;28;20456;-25
2020/12/10 11:40:24;;;;;;;32.63;20.13;;;7.10;99.90;;;;;;4938567;28;20485;-25
2020/12/10 11:42:52;;;;;;;41.60;23.30;;;7.20;99.90;;;;;;4940843;28;20768;-25
2020/12/10 11:45:19;;;;;;;34.70;22.10;;;7.30;99.90;;;;;;4937830;28;20446;-25
2020/12/10 11:47:48;;;;;;;45.33;29.27;;;7.30;99.90;;;;;;4940978;28;20445;-25
2020/12/10 11:50:20;;;;;;;33.20;22.07;;;7.30;99.90;;;;;;4938628;28;20465;-25
2020/12/10 11:52:49;;;;;;;32.87;21.37;;;7.40;99.90;;;;;;4931892;28;20612;-25
2020/12/10 11:55:19;;;;;;;37.53;22.73;;;7.50;99.90;;;;;;4938159;28;20793;-25
2020/12/10 11:57:47;;;;;;;31.93;20.63;;;7.70;99.90;;;;;;4941528;28;20438;-25
2020/12/10 12:00:15;;;;;;;34.77;20.50;;;7.90;99.90;;;;;;4932766;28;20481;-25
2020/12/10 12:02:46;;;;;;;30.10;17.87;;;8.00;99.90;;;;;;4942870;28;20433;-25
2020/12/10 12:05:14;;;;;;;33.90;20.83;;;8.00;99.90;;;;;;4940588;28;20457;-25
2020/12/10 12:07:47;;;;;;;31.07;19.70;;;7.90;99.90;;;;;;4941984;28;20453;-25
2020/12/10 12:10:19;;;;;;;32.80;21.67;;;7.70;99.90;;;;;;4936507;28;20471;-25
2020/12/10 12:12:46;;;;;;;34.03;21.13;;;7.60;99.90;;;;;;4920040;29;20443;-25
2020/12/10 12:15:13;;;;;;;30.03;19.17;;;7.60;99.90;;;;;;4930817;28;20458;-25
2020/12/10 12:17:40;;;;;;;30.17;19.00;;;7.50;99.90;;;;;;4945747;28;20475;-25
2020/12/10 12:20:07;;;;;;;28.00;19.07;;;7.40;99.90;;;;;;4944892;28;20484;-25
2020/12/10 12:22:36;;;;;;;31.20;19.73;;;7.50;99.90;;;;;;4943244;28;20492;-25
2020/12/10 12:25:05;;;;;;;26.77;17.87;;;7.50;99.90;;;;;;4939720;28;20460;-25
2020/12/10 12:27:33;;;;;;;30.63;19.23;;;7.50;99.90;;;;;;4932141;28;20794;-25
2020/12/10 12:30:00;;;;;;;28.33;19.33;;;7.40;99.90;;;;;;4942544;28;20480;-25
2020/12/10 12:32:29;;;;;;;33.37;21.70;;;7.50;99.90;;;;;;4947455;28;20452;-25
2020/12/10 12:34:56;;;;;;;32.57;20.10;;;7.50;99.90;;;;;;4940536;28;20620;-25
2020/12/10 12:37:23;;;;;;;31.93;20.53;;;7.50;99.90;;;;;;4939258;28;20495;-25
2020/12/10 12:39:50;;;;;;;41.47;26.67;;;7.50;99.90;;;;;;4938965;28;20779;-25
2020/12/10 12:42:18;;;;;;;37.47;22.20;;;7.40;99.90;;;;;;4945830;28;21497;-24
2020/12/10 12:44:49;;;;;;;31.03;20.87;;;7.30;99.90;;;;;;4944761;28;20453;-24
2020/12/10 12:47:17;;;;;;;33.53;19.70;;;7.20;99.90;;;;;;4944331;28;20465;-24
2020/12/10 12:49:49;;;;;;;36.13;20.80;;;7.10;99.90;;;;;;4934331;28;20453;-24
2020/12/10 12:52:19;;;;;;;30.70;20.87;;;7.00;99.90;;;;;;4943063;28;20990;-24
2020/12/10 12:54:48;;;;;;;33.60;22.93;;;7.00;99.90;;;;;;4937766;28;20446;-24
2020/12/10 12:57:14;;;;;;;35.00;22.30;;;6.90;99.90;;;;;;4943508;28;20457;-24
2020/12/10 12:59:42;;;;;;;31.80;22.60;;;6.80;99.90;;;;;;4942995;28;20483;-24
2020/12/10 13:02:10;;;;;;;37.87;21.47;;;6.80;99.90;;;;;;4934261;28;20457;-24
2020/12/10 13:04:39;;;;;;;35.50;22.10;;;6.80;99.90;;;;;;4938256;28;20563;-24
2020/12/10 13:07:06;;;;;;;36.67;23.40;;;6.70;99.90;;;;;;4928605;28;20614;-24